sensor_id;sensor_type;location;lat;lon;timestamp;P1;durP1;ratioP1;P2;durP2;ratioP2
23129;SDS011;11734;51.046;13.778;2023-07-28T00:00:36;0.67;;;0.67;;
23129;SDS011;11734;51.046;13.778;2023-07-28T00:03:04;0.90;;;0.90;;
23129;SDS011;11734;51.046;13.778;2023-07-28T00:05:31;0.70;;;0.70;;
23129;SDS011;11734;51.046;13.778;2023-07-28T00:07:58;1.03;;;0.90;;
23129;SDS011;11734;51.046;13.778;2023-07-28T00:10:25;0.70;;;0.70;;
23129;SDS011;11734;51.046;13.778;2023-07-28T00:12:53;0.73;;;0.73;;
23129;SDS011;11734;51.046;13.778;2023-07-28T00:15:20;0.83;;;0.80;;
23129;SDS011;11734;51.046;13.778;2023-07-28T00:17:48;0.60;;;0.60;;
23129;SDS011;11734;51.046;13.778;2023-07-28T00:20:15;1.00;;;1.00;;
23129;SDS011;11734;51.046;13.778;2023-07-28T00:23:01;0.90;;;0.90;;
23129;SDS011;11734;51.046;13.778;2023-07-28T00:25:29;1.00;;;1.00;;
23129;SDS011;11734;51.046;13.778;2023-07-28T00:27:56;0.90;;;0.90;;
23129;SDS011;11734;51.046;13.778;2023-07-28T00:30:24;0.93;;;0.93;;
23129;SDS011;11734;51.046;13.778;2023-07-28T00:32:53;0.77;;;0.77;;
23129;SDS011;11734;51.046;13.778;2023-07-28T00:35:20;0.80;;;0.80;;
23129;SDS011;11734;51.046;13.778;2023-07-28T00:37:47;0.80;;;0.80;;
23129;SDS011;11734;51.046;13.778;2023-07-28T00:40:15;0.80;;;0.80;;
23129;SDS011;11734;51.046;13.778;2023-07-28T00:42:42;0.90;;;0.90;;
23129;SDS011;11734;51.046;13.778;2023-07-28T00:45:09;0.90;;;0.90;;
23129;SDS011;11734;51.046;13.778;2023-07-28T00:47:37;1.20;;;1.10;;
23129;SDS011;11734;51.046;13.778;2023-07-28T00:50:05;0.83;;;0.70;;
23129;SDS011;11734;51.046;13.778;2023-07-28T00:52:32;0.80;;;0.80;;
23129;SDS011;11734;51.046;13.778;2023-07-28T00:55:00;1.20;;;1.10;;
23129;SDS011;11734;51.046;13.778;2023-07-28T00:57:27;0.80;;;0.80;;
23129;SDS011;11734;51.046;13.778;2023-07-28T00:59:55;0.97;;;0.87;;
23129;SDS011;11734;51.046;13.778;2023-07-28T01:02:22;1.10;;;1.00;;
23129;SDS011;11734;51.046;13.778;2023-07-28T01:04:50;0.90;;;0.90;;
23129;SDS011;11734;51.046;13.778;2023-07-28T01:07:30;0.90;;;0.90;;
23129;SDS011;11734;51.046;13.778;2023-07-28T01:10:24;1.20;;;1.10;;
23129;SDS011;11734;51.046;13.778;2023-07-28T01:12:49;1.10;;;1.00;;
23129;SDS011;11734;51.046;13.778;2023-07-28T01:15:17;1.53;;;1.20;;
23129;SDS011;11734;51.046;13.778;2023-07-28T01:17:44;1.30;;;1.20;;
23129;SDS011;11734;51.046;13.778;2023-07-28T01:20:12;1.53;;;1.37;;
23129;SDS011;11734;51.046;13.778;2023-07-28T01:22:56;1.37;;;1.10;;
23129;SDS011;11734;51.046;13.778;2023-07-28T01:27:57;1.20;;;1.10;;
23129;SDS011;11734;51.046;13.778;2023-07-28T01:30:24;1.00;;;1.00;;
23129;SDS011;11734;51.046;13.778;2023-07-28T01:32:56;1.63;;;1.30;;
23129;SDS011;11734;51.046;13.778;2023-07-28T01:35:25;1.40;;;1.30;;
23129;SDS011;11734;51.046;13.778;2023-07-28T01:37:53;1.20;;;1.10;;
23129;SDS011;11734;51.046;13.778;2023-07-28T01:40:20;1.47;;;1.30;;
23129;SDS011;11734;51.046;13.778;2023-07-28T01:42:47;1.30;;;1.20;;
23129;SDS011;11734;51.046;13.778;2023-07-28T01:45:15;1.40;;;1.30;;
23129;SDS011;11734;51.046;13.778;2023-07-28T01:47:42;3.53;;;1.40;;
23129;SDS011;11734;51.046;13.778;2023-07-28T01:50:10;1.60;;;1.40;;
23129;SDS011;11734;51.046;13.778;2023-07-28T01:52:37;1.60;;;1.50;;
23129;SDS011;11734;51.046;13.778;2023-07-28T01:55:04;1.97;;;1.37;;
23129;SDS011;11734;51.046;13.778;2023-07-28T01:57:33;1.87;;;1.43;;
23129;SDS011;11734;51.046;13.778;2023-07-28T02:00:01;1.60;;;1.40;;
23129;SDS011;11734;51.046;13.778;2023-07-28T02:02:49;1.73;;;1.60;;
23129;SDS011;11734;51.046;13.778;2023-07-28T02:05:17;1.50;;;1.40;;
23129;SDS011;11734;51.046;13.778;2023-07-28T02:07:45;1.60;;;1.50;;
23129;SDS011;11734;51.046;13.778;2023-07-28T02:10:12;1.40;;;1.30;;
23129;SDS011;11734;51.046;13.778;2023-07-28T02:12:40;2.03;;;1.60;;
23129;SDS011;11734;51.046;13.778;2023-07-28T02:15:08;1.40;;;1.23;;
23129;SDS011;11734;51.046;13.778;2023-07-28T02:17:35;1.90;;;1.80;;
23129;SDS011;11734;51.046;13.778;2023-07-28T02:20:03;1.50;;;1.17;;
23129;SDS011;11734;51.046;13.778;2023-07-28T02:22:31;1.47;;;1.37;;
23129;SDS011;11734;51.046;13.778;2023-07-28T02:24:58;1.70;;;1.40;;
23129;SDS011;11734;51.046;13.778;2023-07-28T02:27:28;2.00;;;1.80;;
23129;SDS011;11734;51.046;13.778;2023-07-28T02:29:55;2.10;;;1.90;;
23129;SDS011;11734;51.046;13.778;2023-07-28T02:32:23;1.40;;;1.30;;
23129;SDS011;11734;51.046;13.778;2023-07-28T02:34:50;2.00;;;1.60;;
23129;SDS011;11734;51.046;13.778;2023-07-28T02:37:18;1.83;;;1.60;;
23129;SDS011;11734;51.046;13.778;2023-07-28T02:39:45;1.50;;;1.30;;
23129;SDS011;11734;51.046;13.778;2023-07-28T02:42:14;1.80;;;1.30;;
23129;SDS011;11734;51.046;13.778;2023-07-28T02:44:41;1.40;;;1.30;;
23129;SDS011;11734;51.046;13.778;2023-07-28T02:47:09;2.00;;;1.60;;
23129;SDS011;11734;51.046;13.778;2023-07-28T02:49:36;1.30;;;1.20;;
23129;SDS011;11734;51.046;13.778;2023-07-28T02:52:04;2.27;;;1.50;;
23129;SDS011;11734;51.046;13.778;2023-07-28T02:54:31;4.00;;;1.63;;
23129;SDS011;11734;51.046;13.778;2023-07-28T02:56:59;1.40;;;1.30;;
23129;SDS011;11734;51.046;13.778;2023-07-28T02:59:26;1.30;;;1.20;;
23129;SDS011;11734;51.046;13.778;2023-07-28T03:01:54;1.60;;;1.50;;
23129;SDS011;11734;51.046;13.778;2023-07-28T03:04:23;1.97;;;1.13;;
23129;SDS011;11734;51.046;13.778;2023-07-28T03:07:09;1.30;;;1.20;;
23129;SDS011;11734;51.046;13.778;2023-07-28T03:09:38;1.60;;;1.40;;
23129;SDS011;11734;51.046;13.778;2023-07-28T03:12:06;1.37;;;1.27;;
23129;SDS011;11734;51.046;13.778;2023-07-28T03:14:34;1.70;;;1.60;;
23129;SDS011;11734;51.046;13.778;2023-07-28T03:17:01;1.30;;;1.20;;
23129;SDS011;11734;51.046;13.778;2023-07-28T03:19:29;2.60;;;1.60;;
23129;SDS011;11734;51.046;13.778;2023-07-28T03:21:56;1.70;;;1.40;;
23129;SDS011;11734;51.046;13.778;2023-07-28T03:24:24;2.00;;;1.33;;
23129;SDS011;11734;51.046;13.778;2023-07-28T03:26:51;1.67;;;1.57;;
23129;SDS011;11734;51.046;13.778;2023-07-28T03:29:18;1.23;;;1.13;;
23129;SDS011;11734;51.046;13.778;2023-07-28T03:31:46;2.60;;;1.30;;
23129;SDS011;11734;51.046;13.778;2023-07-28T03:34:15;1.63;;;1.20;;
23129;SDS011;11734;51.046;13.778;2023-07-28T03:36:43;1.30;;;1.20;;
23129;SDS011;11734;51.046;13.778;2023-07-28T03:39:10;1.50;;;1.40;;
23129;SDS011;11734;51.046;13.778;2023-07-28T03:41:39;1.20;;;1.10;;
23129;SDS011;11734;51.046;13.778;2023-07-28T03:44:06;1.50;;;1.40;;
23129;SDS011;11734;51.046;13.778;2023-07-28T03:46:33;1.37;;;1.27;;
23129;SDS011;11734;51.046;13.778;2023-07-28T03:49:01;2.03;;;1.43;;
23129;SDS011;11734;51.046;13.778;2023-07-28T03:51:28;1.10;;;1.10;;
23129;SDS011;11734;51.046;13.778;2023-07-28T03:53:56;1.30;;;1.20;;
23129;SDS011;11734;51.046;13.778;2023-07-28T03:56:23;1.00;;;1.00;;
23129;SDS011;11734;51.046;13.778;2023-07-28T03:58:51;1.10;;;1.10;;
23129;SDS011;11734;51.046;13.778;2023-07-28T04:01:19;1.50;;;1.27;;
23129;SDS011;11734;51.046;13.778;2023-07-28T04:03:48;1.10;;;1.10;;
23129;SDS011;11734;51.046;13.778;2023-07-28T04:06:15;1.10;;;1.00;;
23129;SDS011;11734;51.046;13.778;2023-07-28T04:08:42;1.23;;;1.13;;
23129;SDS011;11734;51.046;13.778;2023-07-28T04:11:10;0.97;;;0.97;;
23129;SDS011;11734;51.046;13.778;2023-07-28T04:13:37;1.40;;;1.20;;
23129;SDS011;11734;51.046;13.778;2023-07-28T04:16:04;3.53;;;1.60;;
23129;SDS011;11734;51.046;13.778;2023-07-28T04:18:32;2.57;;;1.13;;
23129;SDS011;11734;51.046;13.778;2023-07-28T04:20:59;1.97;;;1.10;;
23129;SDS011;11734;51.046;13.778;2023-07-28T04:23:27;1.43;;;1.23;;
23129;SDS011;11734;51.046;13.778;2023-07-28T04:25:54;1.63;;;1.10;;
23129;SDS011;11734;51.046;13.778;2023-07-28T04:28:22;1.17;;;1.17;;
23129;SDS011;11734;51.046;13.778;2023-07-28T04:30:52;1.87;;;1.57;;
23129;SDS011;11734;51.046;13.778;2023-07-28T04:33:44;1.10;;;1.00;;
23129;SDS011;11734;51.046;13.778;2023-07-28T04:36:12;1.77;;;1.23;;
23129;SDS011;11734;51.046;13.778;2023-07-28T04:38:39;1.13;;;1.03;;
23129;SDS011;11734;51.046;13.778;2023-07-28T04:41:07;1.20;;;1.00;;
23129;SDS011;11734;51.046;13.778;2023-07-28T04:43:47;1.00;;;0.87;;
23129;SDS011;11734;51.046;13.778;2023-07-28T04:46:14;0.90;;;0.87;;
23129;SDS011;11734;51.046;13.778;2023-07-28T04:48:47;2.30;;;1.17;;
23129;SDS011;11734;51.046;13.778;2023-07-28T04:51:33;1.60;;;1.27;;
23129;SDS011;11734;51.046;13.778;2023-07-28T04:54:19;0.83;;;0.83;;
23129;SDS011;11734;51.046;13.778;2023-07-28T04:56:46;3.13;;;2.10;;
23129;SDS011;11734;51.046;13.778;2023-07-28T04:59:16;0.87;;;0.83;;
23129;SDS011;11734;51.046;13.778;2023-07-28T05:01:48;1.17;;;1.10;;
23129;SDS011;11734;51.046;13.778;2023-07-28T05:04:15;0.90;;;0.90;;
23129;SDS011;11734;51.046;13.778;2023-07-28T05:06:43;0.80;;;0.80;;
23129;SDS011;11734;51.046;13.778;2023-07-28T05:09:10;1.40;;;1.13;;
23129;SDS011;11734;51.046;13.778;2023-07-28T05:11:38;1.33;;;1.23;;
23129;SDS011;11734;51.046;13.778;2023-07-28T05:14:05;1.10;;;1.00;;
23129;SDS011;11734;51.046;13.778;2023-07-28T05:16:38;1.07;;;1.03;;
23129;SDS011;11734;51.046;13.778;2023-07-28T05:19:08;1.37;;;1.13;;
23129;SDS011;11734;51.046;13.778;2023-07-28T05:21:54;1.10;;;1.03;;
23129;SDS011;11734;51.046;13.778;2023-07-28T05:24:33;1.33;;;1.23;;
23129;SDS011;11734;51.046;13.778;2023-07-28T05:27:01;1.20;;;1.10;;
23129;SDS011;11734;51.046;13.778;2023-07-28T05:29:28;1.00;;;0.90;;
23129;SDS011;11734;51.046;13.778;2023-07-28T05:32:03;0.93;;;0.83;;
23129;SDS011;11734;51.046;13.778;2023-07-28T05:34:37;1.10;;;1.10;;
23129;SDS011;11734;51.046;13.778;2023-07-28T05:37:04;1.00;;;1.00;;
23129;SDS011;11734;51.046;13.778;2023-07-28T05:39:33;0.90;;;0.90;;
23129;SDS011;11734;51.046;13.778;2023-07-28T05:42:00;0.97;;;0.97;;
23129;SDS011;11734;51.046;13.778;2023-07-28T05:44:28;1.90;;;1.20;;
23129;SDS011;11734;51.046;13.778;2023-07-28T05:46:56;0.93;;;0.90;;
23129;SDS011;11734;51.046;13.778;2023-07-28T05:49:24;1.00;;;1.00;;
23129;SDS011;11734;51.046;13.778;2023-07-28T05:51:51;2.07;;;1.27;;
23129;SDS011;11734;51.046;13.778;2023-07-28T05:54:18;0.90;;;0.90;;
23129;SDS011;11734;51.046;13.778;2023-07-28T05:56:45;1.00;;;1.00;;
23129;SDS011;11734;51.046;13.778;2023-07-28T05:59:13;1.20;;;1.10;;
23129;SDS011;11734;51.046;13.778;2023-07-28T06:01:41;1.90;;;1.20;;
23129;SDS011;11734;51.046;13.778;2023-07-28T06:04:37;1.20;;;1.10;;
23129;SDS011;11734;51.046;13.778;2023-07-28T06:07:05;0.70;;;0.70;;
23129;SDS011;11734;51.046;13.778;2023-07-28T06:09:34;0.90;;;0.90;;
23129;SDS011;11734;51.046;13.778;2023-07-28T06:12:02;1.67;;;0.90;;
23129;SDS011;11734;51.046;13.778;2023-07-28T06:14:29;1.37;;;1.00;;
23129;SDS011;11734;51.046;13.778;2023-07-28T06:16:57;0.90;;;0.90;;
23129;SDS011;11734;51.046;13.778;2023-07-28T06:19:28;1.07;;;0.97;;
23129;SDS011;11734;51.046;13.778;2023-07-28T06:21:56;0.80;;;0.80;;
23129;SDS011;11734;51.046;13.778;2023-07-28T06:24:23;1.73;;;0.97;;
23129;SDS011;11734;51.046;13.778;2023-07-28T06:26:51;1.10;;;1.00;;
23129;SDS011;11734;51.046;13.778;2023-07-28T06:29:18;1.00;;;0.90;;
23129;SDS011;11734;51.046;13.778;2023-07-28T06:31:46;0.57;;;0.57;;
23129;SDS011;11734;51.046;13.778;2023-07-28T06:34:13;1.87;;;0.90;;
23129;SDS011;11734;51.046;13.778;2023-07-28T06:36:41;0.80;;;0.80;;
23129;SDS011;11734;51.046;13.778;2023-07-28T06:39:08;1.20;;;1.10;;
23129;SDS011;11734;51.046;13.778;2023-07-28T06:41:36;0.80;;;0.80;;
23129;SDS011;11734;51.046;13.778;2023-07-28T06:44:07;0.70;;;0.70;;
23129;SDS011;11734;51.046;13.778;2023-07-28T06:46:36;0.93;;;0.80;;
23129;SDS011;11734;51.046;13.778;2023-07-28T06:49:05;0.90;;;0.90;;
23129;SDS011;11734;51.046;13.778;2023-07-28T06:51:51;1.23;;;0.80;;
23129;SDS011;11734;51.046;13.778;2023-07-28T06:54:19;0.90;;;0.90;;
23129;SDS011;11734;51.046;13.778;2023-07-28T06:56:46;0.90;;;0.80;;
23129;SDS011;11734;51.046;13.778;2023-07-28T06:59:31;0.80;;;0.80;;
23129;SDS011;11734;51.046;13.778;2023-07-28T07:01:59;0.60;;;0.60;;
23129;SDS011;11734;51.046;13.778;2023-07-28T07:04:27;0.60;;;0.60;;
23129;SDS011;11734;51.046;13.778;2023-07-28T07:06:54;0.97;;;0.90;;
23129;SDS011;11734;51.046;13.778;2023-07-28T07:09:22;0.50;;;0.50;;
23129;SDS011;11734;51.046;13.778;2023-07-28T07:11:49;0.50;;;0.50;;
23129;SDS011;11734;51.046;13.778;2023-07-28T07:14:17;0.47;;;0.47;;
23129;SDS011;11734;51.046;13.778;2023-07-28T07:16:45;1.03;;;0.80;;
23129;SDS011;11734;51.046;13.778;2023-07-28T07:19:12;0.60;;;0.50;;
23129;SDS011;11734;51.046;13.778;2023-07-28T07:21:41;0.70;;;0.70;;
23129;SDS011;11734;51.046;13.778;2023-07-28T07:24:11;0.50;;;0.50;;
23129;SDS011;11734;51.046;13.778;2023-07-28T07:26:40;0.70;;;0.70;;
23129;SDS011;11734;51.046;13.778;2023-07-28T07:29:08;0.57;;;0.57;;
23129;SDS011;11734;51.046;13.778;2023-07-28T07:31:39;1.20;;;0.47;;
23129;SDS011;11734;51.046;13.778;2023-07-28T07:34:06;0.80;;;0.80;;
23129;SDS011;11734;51.046;13.778;2023-07-28T07:36:33;0.60;;;0.60;;
23129;SDS011;11734;51.046;13.778;2023-07-28T07:39:01;0.60;;;0.60;;
23129;SDS011;11734;51.046;13.778;2023-07-28T07:41:28;0.60;;;0.60;;
23129;SDS011;11734;51.046;13.778;2023-07-28T07:43:57;1.00;;;0.60;;
23129;SDS011;11734;51.046;13.778;2023-07-28T07:46:24;0.40;;;0.40;;
23129;SDS011;11734;51.046;13.778;2023-07-28T07:48:51;0.60;;;0.60;;
23129;SDS011;11734;51.046;13.778;2023-07-28T07:51:19;0.70;;;0.70;;
23129;SDS011;11734;51.046;13.778;2023-07-28T07:53:46;0.93;;;0.70;;
23129;SDS011;11734;51.046;13.778;2023-07-28T07:56:14;0.60;;;0.60;;
23129;SDS011;11734;51.046;13.778;2023-07-28T07:58:41;0.63;;;0.63;;
23129;SDS011;11734;51.046;13.778;2023-07-28T08:01:09;0.63;;;0.63;;
23129;SDS011;11734;51.046;13.778;2023-07-28T08:03:38;1.33;;;0.70;;
23129;SDS011;11734;51.046;13.778;2023-07-28T08:06:06;1.40;;;0.83;;
23129;SDS011;11734;51.046;13.778;2023-07-28T08:08:34;0.97;;;0.70;;
23129;SDS011;11734;51.046;13.778;2023-07-28T08:11:01;1.07;;;0.60;;
23129;SDS011;11734;51.046;13.778;2023-07-28T08:13:29;0.60;;;0.60;;
23129;SDS011;11734;51.046;13.778;2023-07-28T08:15:56;8.03;;;2.17;;
23129;SDS011;11734;51.046;13.778;2023-07-28T08:18:24;0.67;;;0.67;;
23129;SDS011;11734;51.046;13.778;2023-07-28T08:20:51;0.60;;;0.60;;
23129;SDS011;11734;51.046;13.778;2023-07-28T08:23:18;0.97;;;0.90;;
23129;SDS011;11734;51.046;13.778;2023-07-28T08:25:46;1.43;;;0.60;;
23129;SDS011;11734;51.046;13.778;2023-07-28T08:28:13;1.00;;;0.60;;
23129;SDS011;11734;51.046;13.778;2023-07-28T08:30:40;0.50;;;0.50;;
23129;SDS011;11734;51.046;13.778;2023-07-28T08:33:07;0.60;;;0.60;;
23129;SDS011;11734;51.046;13.778;2023-07-28T08:35:35;1.43;;;0.60;;
23129;SDS011;11734;51.046;13.778;2023-07-28T08:38:21;0.43;;;0.43;;
23129;SDS011;11734;51.046;13.778;2023-07-28T08:40:48;0.73;;;0.73;;
23129;SDS011;11734;51.046;13.778;2023-07-28T08:43:15;0.60;;;0.60;;
23129;SDS011;11734;51.046;13.778;2023-07-28T08:45:43;0.40;;;0.40;;
23129;SDS011;11734;51.046;13.778;2023-07-28T08:48:10;0.60;;;0.60;;
23129;SDS011;11734;51.046;13.778;2023-07-28T08:50:39;0.60;;;0.60;;
23129;SDS011;11734;51.046;13.778;2023-07-28T08:53:06;0.40;;;0.40;;
23129;SDS011;11734;51.046;13.778;2023-07-28T08:55:33;0.50;;;0.50;;
23129;SDS011;11734;51.046;13.778;2023-07-28T08:58:16;0.53;;;0.53;;
23129;SDS011;11734;51.046;13.778;2023-07-28T09:00:48;0.63;;;0.63;;
23129;SDS011;11734;51.046;13.778;2023-07-28T09:03:17;0.60;;;0.60;;
23129;SDS011;11734;51.046;13.778;2023-07-28T09:05:45;0.60;;;0.60;;
23129;SDS011;11734;51.046;13.778;2023-07-28T09:08:13;0.63;;;0.63;;
23129;SDS011;11734;51.046;13.778;2023-07-28T09:10:45;0.87;;;0.80;;
23129;SDS011;11734;51.046;13.778;2023-07-28T09:13:13;0.73;;;0.73;;
23129;SDS011;11734;51.046;13.778;2023-07-28T09:15:43;0.50;;;0.50;;
23129;SDS011;11734;51.046;13.778;2023-07-28T09:18:12;0.60;;;0.60;;
23129;SDS011;11734;51.046;13.778;2023-07-28T09:20:41;0.60;;;0.60;;
23129;SDS011;11734;51.046;13.778;2023-07-28T09:23:08;1.70;;;0.80;;
23129;SDS011;11734;51.046;13.778;2023-07-28T09:25:37;0.83;;;0.63;;
23129;SDS011;11734;51.046;13.778;2023-07-28T09:28:05;0.60;;;0.60;;
23129;SDS011;11734;51.046;13.778;2023-07-28T09:30:45;0.80;;;0.80;;
23129;SDS011;11734;51.046;13.778;2023-07-28T09:33:13;0.60;;;0.60;;
23129;SDS011;11734;51.046;13.778;2023-07-28T09:35:47;0.70;;;0.70;;
23129;SDS011;11734;51.046;13.778;2023-07-28T09:38:15;0.50;;;0.50;;
23129;SDS011;11734;51.046;13.778;2023-07-28T09:40:43;0.97;;;0.77;;
23129;SDS011;11734;51.046;13.778;2023-07-28T09:43:11;0.53;;;0.53;;
23129;SDS011;11734;51.046;13.778;2023-07-28T09:45:40;0.90;;;0.90;;
23129;SDS011;11734;51.046;13.778;2023-07-28T09:48:08;1.00;;;0.73;;
23129;SDS011;11734;51.046;13.778;2023-07-28T09:50:37;0.70;;;0.70;;
23129;SDS011;11734;51.046;13.778;2023-07-28T09:53:05;0.70;;;0.70;;
23129;SDS011;11734;51.046;13.778;2023-07-28T09:55:35;0.60;;;0.60;;
23129;SDS011;11734;51.046;13.778;2023-07-28T09:58:04;0.63;;;0.63;;
23129;SDS011;11734;51.046;13.778;2023-07-28T10:00:34;0.70;;;0.70;;
23129;SDS011;11734;51.046;13.778;2023-07-28T10:03:02;0.73;;;0.73;;
23129;SDS011;11734;51.046;13.778;2023-07-28T10:05:30;0.73;;;0.70;;
23129;SDS011;11734;51.046;13.778;2023-07-28T10:07:57;0.53;;;0.53;;
23129;SDS011;11734;51.046;13.778;2023-07-28T10:10:25;0.90;;;0.80;;
23129;SDS011;11734;51.046;13.778;2023-07-28T10:12:53;0.70;;;0.70;;
23129;SDS011;11734;51.046;13.778;2023-07-28T10:15:27;0.77;;;0.67;;
23129;SDS011;11734;51.046;13.778;2023-07-28T10:17:55;0.70;;;0.70;;
23129;SDS011;11734;51.046;13.778;2023-07-28T10:20:28;0.70;;;0.70;;
23129;SDS011;11734;51.046;13.778;2023-07-28T10:23:05;0.60;;;0.60;;
23129;SDS011;11734;51.046;13.778;2023-07-28T10:25:33;0.97;;;0.60;;
23129;SDS011;11734;51.046;13.778;2023-07-28T10:28:02;0.60;;;0.60;;
23129;SDS011;11734;51.046;13.778;2023-07-28T10:30:34;0.70;;;0.70;;
23129;SDS011;11734;51.046;13.778;2023-07-28T10:33:02;0.70;;;0.70;;
23129;SDS011;11734;51.046;13.778;2023-07-28T10:35:30;0.70;;;0.70;;
23129;SDS011;11734;51.046;13.778;2023-07-28T10:38:22;0.80;;;0.80;;
23129;SDS011;11734;51.046;13.778;2023-07-28T10:40:46;0.70;;;0.70;;
23129;SDS011;11734;51.046;13.778;2023-07-28T10:43:17;0.70;;;0.70;;
23129;SDS011;11734;51.046;13.778;2023-07-28T10:45:44;0.50;;;0.50;;
23129;SDS011;11734;51.046;13.778;2023-07-28T10:48:12;0.47;;;0.47;;
23129;SDS011;11734;51.046;13.778;2023-07-28T10:50:40;0.70;;;0.70;;
23129;SDS011;11734;51.046;13.778;2023-07-28T10:53:08;1.00;;;1.00;;
23129;SDS011;11734;51.046;13.778;2023-07-28T10:55:37;0.70;;;0.70;;
23129;SDS011;11734;51.046;13.778;2023-07-28T10:58:06;0.80;;;0.80;;
23129;SDS011;11734;51.046;13.778;2023-07-28T11:00:33;0.73;;;0.70;;
23129;SDS011;11734;51.046;13.778;2023-07-28T11:03:00;0.70;;;0.70;;
23129;SDS011;11734;51.046;13.778;2023-07-28T11:05:28;1.33;;;0.80;;
23129;SDS011;11734;51.046;13.778;2023-07-28T11:08:02;0.63;;;0.63;;
23129;SDS011;11734;51.046;13.778;2023-07-28T11:10:30;1.00;;;0.70;;
23129;SDS011;11734;51.046;13.778;2023-07-28T11:12:58;0.60;;;0.60;;
23129;SDS011;11734;51.046;13.778;2023-07-28T11:15:36;0.70;;;0.70;;
23129;SDS011;11734;51.046;13.778;2023-07-28T11:18:03;1.00;;;1.00;;
23129;SDS011;11734;51.046;13.778;2023-07-28T11:20:31;0.70;;;0.70;;
23129;SDS011;11734;51.046;13.778;2023-07-28T11:23:00;0.83;;;0.83;;
23129;SDS011;11734;51.046;13.778;2023-07-28T11:25:30;0.87;;;0.87;;
23129;SDS011;11734;51.046;13.778;2023-07-28T11:28:02;0.60;;;0.60;;
23129;SDS011;11734;51.046;13.778;2023-07-28T11:30:32;0.80;;;0.80;;
23129;SDS011;11734;51.046;13.778;2023-07-28T11:33:04;0.80;;;0.80;;
23129;SDS011;11734;51.046;13.778;2023-07-28T11:35:35;1.50;;;1.20;;
23129;SDS011;11734;51.046;13.778;2023-07-28T11:38:03;0.70;;;0.70;;
23129;SDS011;11734;51.046;13.778;2023-07-28T11:40:30;0.70;;;0.70;;
23129;SDS011;11734;51.046;13.778;2023-07-28T11:42:58;0.87;;;0.80;;
23129;SDS011;11734;51.046;13.778;2023-07-28T11:45:25;0.80;;;0.80;;
23129;SDS011;11734;51.046;13.778;2023-07-28T11:50:24;0.83;;;0.83;;
23129;SDS011;11734;51.046;13.778;2023-07-28T11:52:51;0.83;;;0.83;;
23129;SDS011;11734;51.046;13.778;2023-07-28T11:55:19;0.80;;;0.80;;
23129;SDS011;11734;51.046;13.778;2023-07-28T11:57:47;0.80;;;0.80;;
23129;SDS011;11734;51.046;13.778;2023-07-28T12:00:14;1.00;;;0.90;;
23129;SDS011;11734;51.046;13.778;2023-07-28T12:03:05;2.03;;;1.00;;
23129;SDS011;11734;51.046;13.778;2023-07-28T12:05:37;0.90;;;0.90;;
23129;SDS011;11734;51.046;13.778;2023-07-28T12:08:32;0.97;;;0.97;;
23129;SDS011;11734;51.046;13.778;2023-07-28T12:11:00;0.80;;;0.80;;
23129;SDS011;11734;51.046;13.778;2023-07-28T12:13:30;1.17;;;1.07;;
23129;SDS011;11734;51.046;13.778;2023-07-28T12:15:58;0.90;;;0.90;;
23129;SDS011;11734;51.046;13.778;2023-07-28T12:18:31;0.97;;;0.97;;
23129;SDS011;11734;51.046;13.778;2023-07-28T12:21:02;1.00;;;0.87;;
23129;SDS011;11734;51.046;13.778;2023-07-28T12:23:30;0.87;;;0.87;;
23129;SDS011;11734;51.046;13.778;2023-07-28T12:26:00;0.60;;;0.60;;
23129;SDS011;11734;51.046;13.778;2023-07-28T12:28:27;0.70;;;0.70;;
23129;SDS011;11734;51.046;13.778;2023-07-28T12:30:55;0.90;;;0.90;;
23129;SDS011;11734;51.046;13.778;2023-07-28T12:33:25;0.90;;;0.90;;
23129;SDS011;11734;51.046;13.778;2023-07-28T12:36:04;0.80;;;0.80;;
23129;SDS011;11734;51.046;13.778;2023-07-28T12:38:35;0.90;;;0.90;;
23129;SDS011;11734;51.046;13.778;2023-07-28T12:41:05;0.87;;;0.87;;
23129;SDS011;11734;51.046;13.778;2023-07-28T12:43:35;0.87;;;0.87;;
23129;SDS011;11734;51.046;13.778;2023-07-28T12:46:05;0.80;;;0.80;;
23129;SDS011;11734;51.046;13.778;2023-07-28T12:48:36;1.47;;;1.07;;
23129;SDS011;11734;51.046;13.778;2023-07-28T12:51:07;1.20;;;1.17;;
23129;SDS011;11734;51.046;13.778;2023-07-28T12:53:34;0.77;;;0.77;;
23129;SDS011;11734;51.046;13.778;2023-07-28T12:56:01;0.90;;;0.90;;
23129;SDS011;11734;51.046;13.778;2023-07-28T12:58:29;0.80;;;0.80;;
23129;SDS011;11734;51.046;13.778;2023-07-28T13:01:00;0.80;;;0.80;;
23129;SDS011;11734;51.046;13.778;2023-07-28T13:03:30;1.03;;;1.00;;
23129;SDS011;11734;51.046;13.778;2023-07-28T13:05:58;0.80;;;0.80;;
23129;SDS011;11734;51.046;13.778;2023-07-28T13:08:26;2.23;;;1.00;;
23129;SDS011;11734;51.046;13.778;2023-07-28T13:10:56;0.80;;;0.80;;
23129;SDS011;11734;51.046;13.778;2023-07-28T13:13:27;1.00;;;1.00;;
23129;SDS011;11734;51.046;13.778;2023-07-28T13:15:56;1.00;;;1.00;;
23129;SDS011;11734;51.046;13.778;2023-07-28T13:18:24;0.80;;;0.80;;
23129;SDS011;11734;51.046;13.778;2023-07-28T13:20:51;1.00;;;1.00;;
23129;SDS011;11734;51.046;13.778;2023-07-28T13:23:19;1.20;;;1.10;;
23129;SDS011;11734;51.046;13.778;2023-07-28T13:25:46;1.10;;;0.97;;
23129;SDS011;11734;51.046;13.778;2023-07-28T13:28:13;1.00;;;1.00;;
23129;SDS011;11734;51.046;13.778;2023-07-28T13:30:41;0.90;;;0.90;;
23129;SDS011;11734;51.046;13.778;2023-07-28T13:33:08;1.03;;;0.93;;
23129;SDS011;11734;51.046;13.778;2023-07-28T13:35:36;0.90;;;0.90;;
23129;SDS011;11734;51.046;13.778;2023-07-28T13:38:03;0.87;;;0.87;;
23129;SDS011;11734;51.046;13.778;2023-07-28T13:40:31;1.07;;;0.90;;
23129;SDS011;11734;51.046;13.778;2023-07-28T13:43:03;1.00;;;1.00;;
23129;SDS011;11734;51.046;13.778;2023-07-28T13:45:32;0.90;;;0.90;;
23129;SDS011;11734;51.046;13.778;2023-07-28T13:47:59;0.90;;;0.90;;
23129;SDS011;11734;51.046;13.778;2023-07-28T13:50:27;0.87;;;0.87;;
23129;SDS011;11734;51.046;13.778;2023-07-28T13:52:57;1.00;;;1.00;;
23129;SDS011;11734;51.046;13.778;2023-07-28T13:55:44;1.10;;;1.10;;
23129;SDS011;11734;51.046;13.778;2023-07-28T13:58:23;1.00;;;1.00;;
23129;SDS011;11734;51.046;13.778;2023-07-28T14:00:50;0.90;;;0.90;;
23129;SDS011;11734;51.046;13.778;2023-07-28T14:03:18;0.90;;;0.90;;
23129;SDS011;11734;51.046;13.778;2023-07-28T14:05:45;1.00;;;1.00;;
23129;SDS011;11734;51.046;13.778;2023-07-28T14:08:13;0.90;;;0.90;;
23129;SDS011;11734;51.046;13.778;2023-07-28T14:10:44;1.00;;;1.00;;
23129;SDS011;11734;51.046;13.778;2023-07-28T14:13:12;0.90;;;0.90;;
23129;SDS011;11734;51.046;13.778;2023-07-28T14:15:39;0.70;;;0.70;;
23129;SDS011;11734;51.046;13.778;2023-07-28T14:18:07;0.90;;;0.90;;
23129;SDS011;11734;51.046;13.778;2023-07-28T14:20:34;0.90;;;0.90;;
23129;SDS011;11734;51.046;13.778;2023-07-28T14:23:02;1.10;;;1.00;;
23129;SDS011;11734;51.046;13.778;2023-07-28T14:25:46;0.90;;;0.90;;
23129;SDS011;11734;51.046;13.778;2023-07-28T14:28:14;1.00;;;1.00;;
23129;SDS011;11734;51.046;13.778;2023-07-28T14:30:41;0.80;;;0.80;;
23129;SDS011;11734;51.046;13.778;2023-07-28T14:33:13;1.00;;;1.00;;
23129;SDS011;11734;51.046;13.778;2023-07-28T14:35:42;0.93;;;0.93;;
23129;SDS011;11734;51.046;13.778;2023-07-28T14:38:10;1.10;;;1.00;;
23129;SDS011;11734;51.046;13.778;2023-07-28T14:40:37;0.97;;;0.97;;
23129;SDS011;11734;51.046;13.778;2023-07-28T14:43:06;0.87;;;0.87;;
23129;SDS011;11734;51.046;13.778;2023-07-28T14:45:33;1.00;;;1.00;;
23129;SDS011;11734;51.046;13.778;2023-07-28T14:48:01;0.97;;;0.97;;
23129;SDS011;11734;51.046;13.778;2023-07-28T14:50:29;0.70;;;0.70;;